sensor_id;sensor_type;location;lat;lon;timestamp;P1;durP1;ratioP1;P2;durP2;ratioP2
11988;SDS011;6054;50.966;7.094;2024-03-07T00:00:18;19.60;;;12.75;;
11988;SDS011;6054;50.966;7.094;2024-03-07T00:02:48;21.13;;;14.48;;
11988;SDS011;6054;50.966;7.094;2024-03-07T00:05:16;22.25;;;14.88;;
11988;SDS011;6054;50.966;7.094;2024-03-07T00:07:50;18.77;;;13.43;;
11988;SDS011;6054;50.966;7.094;2024-03-07T00:10:28;22.98;;;14.50;;
11988;SDS011;6054;50.966;7.094;2024-03-07T00:13:03;21.42;;;13.63;;
11988;SDS011;6054;50.966;7.094;2024-03-07T00:15:33;22.65;;;14.23;;
11988;SDS011;6054;50.966;7.094;2024-03-07T00:18:02;20.88;;;14.35;;
11988;SDS011;6054;50.966;7.094;2024-03-07T00:20:37;23.80;;;14.30;;
11988;SDS011;6054;50.966;7.094;2024-03-07T00:23:04;20.80;;;13.93;;
11988;SDS011;6054;50.966;7.094;2024-03-07T00:28:20;20.85;;;13.40;;
11988;SDS011;6054;50.966;7.094;2024-03-07T00:30:58;21.10;;;14.88;;
11988;SDS011;6054;50.966;7.094;2024-03-07T00:33:35;20.63;;;13.45;;
11988;SDS011;6054;50.966;7.094;2024-03-07T00:36:08;22.50;;;14.68;;
11988;SDS011;6054;50.966;7.094;2024-03-07T00:38:55;21.60;;;13.80;;
11988;SDS011;6054;50.966;7.094;2024-03-07T00:41:31;19.35;;;13.90;;
11988;SDS011;6054;50.966;7.094;2024-03-07T00:43:59;18.98;;;13.27;;
11988;SDS011;6054;50.966;7.094;2024-03-07T00:46:44;21.88;;;13.75;;
11988;SDS011;6054;50.966;7.094;2024-03-07T00:49:17;21.35;;;14.13;;
11988;SDS011;6054;50.966;7.094;2024-03-07T00:51:45;22.55;;;14.05;;
11988;SDS011;6054;50.966;7.094;2024-03-07T00:54:26;19.52;;;12.88;;
11988;SDS011;6054;50.966;7.094;2024-03-07T00:57:10;18.33;;;12.15;;
11988;SDS011;6054;50.966;7.094;2024-03-07T00:59:52;17.70;;;13.05;;
11988;SDS011;6054;50.966;7.094;2024-03-07T01:02:23;18.50;;;12.02;;
11988;SDS011;6054;50.966;7.094;2024-03-07T01:05:02;19.70;;;12.80;;
11988;SDS011;6054;50.966;7.094;2024-03-07T01:07:44;17.52;;;12.55;;
11988;SDS011;6054;50.966;7.094;2024-03-07T01:10:40;21.30;;;12.90;;
11988;SDS011;6054;50.966;7.094;2024-03-07T01:13:17;21.85;;;13.77;;
11988;SDS011;6054;50.966;7.094;2024-03-07T01:15:49;20.35;;;13.40;;
11988;SDS011;6054;50.966;7.094;2024-03-07T01:18:34;21.60;;;13.10;;
11988;SDS011;6054;50.966;7.094;2024-03-07T01:21:13;18.17;;;12.18;;
11988;SDS011;6054;50.966;7.094;2024-03-07T01:23:55;19.60;;;13.27;;
11988;SDS011;6054;50.966;7.094;2024-03-07T01:26:23;19.48;;;13.05;;
11988;SDS011;6054;50.966;7.094;2024-03-07T01:28:54;21.25;;;13.57;;
11988;SDS011;6054;50.966;7.094;2024-03-07T01:31:42;17.23;;;11.43;;
11988;SDS011;6054;50.966;7.094;2024-03-07T01:34:19;19.55;;;12.30;;
11988;SDS011;6054;50.966;7.094;2024-03-07T01:37:03;18.20;;;12.10;;
11988;SDS011;6054;50.966;7.094;2024-03-07T01:39:56;19.58;;;13.38;;
11988;SDS011;6054;50.966;7.094;2024-03-07T01:42:46;19.60;;;12.82;;
11988;SDS011;6054;50.966;7.094;2024-03-07T01:48:09;20.92;;;13.32;;
11988;SDS011;6054;50.966;7.094;2024-03-07T01:51:01;21.23;;;13.38;;
11988;SDS011;6054;50.966;7.094;2024-03-07T01:53:31;20.90;;;13.65;;
11988;SDS011;6054;50.966;7.094;2024-03-07T01:56:10;23.90;;;13.68;;
11988;SDS011;6054;50.966;7.094;2024-03-07T01:58:44;23.23;;;14.00;;
11988;SDS011;6054;50.966;7.094;2024-03-07T02:04:20;23.60;;;14.30;;
11988;SDS011;6054;50.966;7.094;2024-03-07T02:07:08;21.48;;;13.85;;
11988;SDS011;6054;50.966;7.094;2024-03-07T02:09:42;18.90;;;13.65;;
11988;SDS011;6054;50.966;7.094;2024-03-07T02:12:35;22.80;;;14.30;;
11988;SDS011;6054;50.966;7.094;2024-03-07T02:15:06;22.55;;;13.82;;
11988;SDS011;6054;50.966;7.094;2024-03-07T02:17:51;22.85;;;13.55;;
11988;SDS011;6054;50.966;7.094;2024-03-07T02:20:27;20.38;;;13.00;;
11988;SDS011;6054;50.966;7.094;2024-03-07T02:23:01;18.98;;;12.27;;
11988;SDS011;6054;50.966;7.094;2024-03-07T02:25:34;19.85;;;13.05;;
11988;SDS011;6054;50.966;7.094;2024-03-07T02:28:18;22.88;;;14.48;;
11988;SDS011;6054;50.966;7.094;2024-03-07T02:30:50;20.92;;;13.95;;
11988;SDS011;6054;50.966;7.094;2024-03-07T02:33:22;21.25;;;13.75;;
11988;SDS011;6054;50.966;7.094;2024-03-07T02:36:04;22.50;;;13.05;;
11988;SDS011;6054;50.966;7.094;2024-03-07T02:41:33;26.80;;;14.80;;
11988;SDS011;6054;50.966;7.094;2024-03-07T02:44:03;22.08;;;14.18;;
11988;SDS011;6054;50.966;7.094;2024-03-07T02:46:37;22.75;;;13.95;;
11988;SDS011;6054;50.966;7.094;2024-03-07T02:49:18;22.50;;;13.35;;
11988;SDS011;6054;50.966;7.094;2024-03-07T02:52:05;21.20;;;13.70;;
11988;SDS011;6054;50.966;7.094;2024-03-07T02:54:49;20.50;;;13.68;;
11988;SDS011;6054;50.966;7.094;2024-03-07T02:57:21;22.40;;;14.45;;
11988;SDS011;6054;50.966;7.094;2024-03-07T03:00:06;25.27;;;14.55;;
11988;SDS011;6054;50.966;7.094;2024-03-07T03:02:56;21.23;;;13.40;;
11988;SDS011;6054;50.966;7.094;2024-03-07T03:05:30;23.85;;;13.20;;
11988;SDS011;6054;50.966;7.094;2024-03-07T03:08:17;21.27;;;13.82;;
11988;SDS011;6054;50.966;7.094;2024-03-07T03:10:55;22.63;;;13.57;;
11988;SDS011;6054;50.966;7.094;2024-03-07T03:13:34;19.13;;;13.57;;
11988;SDS011;6054;50.966;7.094;2024-03-07T03:16:41;20.85;;;13.25;;
11988;SDS011;6054;50.966;7.094;2024-03-07T03:19:26;20.52;;;13.10;;
11988;SDS011;6054;50.966;7.094;2024-03-07T03:22:02;21.00;;;13.40;;
11988;SDS011;6054;50.966;7.094;2024-03-07T03:25:07;23.83;;;13.85;;
11988;SDS011;6054;50.966;7.094;2024-03-07T03:27:48;19.77;;;13.38;;
11988;SDS011;6054;50.966;7.094;2024-03-07T03:30:22;20.70;;;13.13;;
11988;SDS011;6054;50.966;7.094;2024-03-07T03:33:05;21.10;;;12.82;;
11988;SDS011;6054;50.966;7.094;2024-03-07T03:35:36;22.00;;;13.93;;
11988;SDS011;6054;50.966;7.094;2024-03-07T03:38:29;20.05;;;13.30;;
11988;SDS011;6054;50.966;7.094;2024-03-07T03:41:26;22.88;;;12.82;;
11988;SDS011;6054;50.966;7.094;2024-03-07T03:50:41;18.38;;;12.07;;
11988;SDS011;6054;50.966;7.094;2024-03-07T03:53:16;18.52;;;12.98;;
11988;SDS011;6054;50.966;7.094;2024-03-07T03:56:06;22.75;;;12.85;;
11988;SDS011;6054;50.966;7.094;2024-03-07T03:58:54;23.45;;;13.15;;
11988;SDS011;6054;50.966;7.094;2024-03-07T04:01:47;21.70;;;12.38;;
11988;SDS011;6054;50.966;7.094;2024-03-07T04:04:33;20.98;;;12.57;;
11988;SDS011;6054;50.966;7.094;2024-03-07T04:07:26;19.35;;;12.52;;
11988;SDS011;6054;50.966;7.094;2024-03-07T04:10:14;17.90;;;12.02;;
11988;SDS011;6054;50.966;7.094;2024-03-07T04:13:05;20.42;;;12.70;;
11988;SDS011;6054;50.966;7.094;2024-03-07T04:15:51;20.23;;;12.70;;
11988;SDS011;6054;50.966;7.094;2024-03-07T04:18:22;21.30;;;12.63;;
11988;SDS011;6054;50.966;7.094;2024-03-07T04:20:59;20.23;;;12.68;;
11988;SDS011;6054;50.966;7.094;2024-03-07T04:23:29;20.55;;;13.07;;
11988;SDS011;6054;50.966;7.094;2024-03-07T04:26:04;18.42;;;11.80;;
11988;SDS011;6054;50.966;7.094;2024-03-07T04:28:46;18.95;;;12.32;;
11988;SDS011;6054;50.966;7.094;2024-03-07T04:31:25;19.73;;;11.85;;
11988;SDS011;6054;50.966;7.094;2024-03-07T04:33:57;21.58;;;12.55;;
11988;SDS011;6054;50.966;7.094;2024-03-07T04:39:26;19.48;;;12.50;;
11988;SDS011;6054;50.966;7.094;2024-03-07T04:42:02;24.95;;;14.50;;
11988;SDS011;6054;50.966;7.094;2024-03-07T04:44:43;21.55;;;13.15;;
11988;SDS011;6054;50.966;7.094;2024-03-07T04:47:14;20.42;;;12.77;;
11988;SDS011;6054;50.966;7.094;2024-03-07T04:49:57;21.50;;;13.40;;
11988;SDS011;6054;50.966;7.094;2024-03-07T04:52:39;20.90;;;12.93;;
11988;SDS011;6054;50.966;7.094;2024-03-07T04:55:08;22.17;;;12.27;;
11988;SDS011;6054;50.966;7.094;2024-03-07T04:57:45;21.27;;;11.75;;
11988;SDS011;6054;50.966;7.094;2024-03-07T05:00:31;20.42;;;12.00;;
11988;SDS011;6054;50.966;7.094;2024-03-07T05:02:59;19.63;;;12.13;;
11988;SDS011;6054;50.966;7.094;2024-03-07T05:05:31;16.02;;;10.88;;
11988;SDS011;6054;50.966;7.094;2024-03-07T05:08:07;20.60;;;11.77;;
11988;SDS011;6054;50.966;7.094;2024-03-07T05:10:38;19.35;;;12.32;;
11988;SDS011;6054;50.966;7.094;2024-03-07T05:13:09;17.10;;;11.13;;
11988;SDS011;6054;50.966;7.094;2024-03-07T05:15:54;20.67;;;12.07;;
11988;SDS011;6054;50.966;7.094;2024-03-07T05:18:41;19.83;;;11.20;;
11988;SDS011;6054;50.966;7.094;2024-03-07T05:21:13;17.20;;;10.90;;
11988;SDS011;6054;50.966;7.094;2024-03-07T05:24:09;17.42;;;11.55;;
11988;SDS011;6054;50.966;7.094;2024-03-07T05:26:40;21.58;;;12.82;;
11988;SDS011;6054;50.966;7.094;2024-03-07T05:29:12;20.95;;;12.90;;
11988;SDS011;6054;50.966;7.094;2024-03-07T05:31:43;18.80;;;12.25;;
11988;SDS011;6054;50.966;7.094;2024-03-07T05:34:15;20.85;;;12.35;;
11988;SDS011;6054;50.966;7.094;2024-03-07T05:36:54;19.48;;;12.73;;
11988;SDS011;6054;50.966;7.094;2024-03-07T05:45:54;18.52;;;12.88;;
11988;SDS011;6054;50.966;7.094;2024-03-07T05:48:26;18.55;;;11.88;;
11988;SDS011;6054;50.966;7.094;2024-03-07T05:50:59;22.90;;;13.00;;
11988;SDS011;6054;50.966;7.094;2024-03-07T05:53:32;19.27;;;12.02;;
11988;SDS011;6054;50.966;7.094;2024-03-07T05:56:08;23.58;;;13.45;;
11988;SDS011;6054;50.966;7.094;2024-03-07T05:58:58;20.08;;;13.18;;
11988;SDS011;6054;50.966;7.094;2024-03-07T06:04:57;23.23;;;13.90;;
11988;SDS011;6054;50.966;7.094;2024-03-07T06:07:44;22.75;;;14.90;;
11988;SDS011;6054;50.966;7.094;2024-03-07T06:10:28;21.48;;;14.38;;
11988;SDS011;6054;50.966;7.094;2024-03-07T06:12:56;22.13;;;14.45;;
11988;SDS011;6054;50.966;7.094;2024-03-07T06:15:52;29.17;;;15.55;;
11988;SDS011;6054;50.966;7.094;2024-03-07T06:18:55;22.27;;;14.25;;
11988;SDS011;6054;50.966;7.094;2024-03-07T06:21:41;24.88;;;14.98;;
11988;SDS011;6054;50.966;7.094;2024-03-07T06:24:17;22.23;;;13.90;;
11988;SDS011;6054;50.966;7.094;2024-03-07T06:27:04;28.38;;;14.98;;
11988;SDS011;6054;50.966;7.094;2024-03-07T06:29:41;24.95;;;15.05;;
11988;SDS011;6054;50.966;7.094;2024-03-07T06:32:26;22.38;;;14.38;;
11988;SDS011;6054;50.966;7.094;2024-03-07T06:35:09;28.48;;;15.38;;
11988;SDS011;6054;50.966;7.094;2024-03-07T06:38:04;23.08;;;14.60;;
11988;SDS011;6054;50.966;7.094;2024-03-07T06:40:41;21.02;;;14.40;;
11988;SDS011;6054;50.966;7.094;2024-03-07T06:43:40;23.00;;;14.90;;
11988;SDS011;6054;50.966;7.094;2024-03-07T06:46:12;25.33;;;15.55;;
11988;SDS011;6054;50.966;7.094;2024-03-07T06:48:56;25.48;;;15.18;;
11988;SDS011;6054;50.966;7.094;2024-03-07T06:51:25;22.80;;;14.90;;
11988;SDS011;6054;50.966;7.094;2024-03-07T06:54:07;25.90;;;15.95;;
11988;SDS011;6054;50.966;7.094;2024-03-07T06:56:41;26.73;;;15.45;;
11988;SDS011;6054;50.966;7.094;2024-03-07T06:59:10;24.08;;;15.63;;
11988;SDS011;6054;50.966;7.094;2024-03-07T07:01:41;22.63;;;15.65;;
11988;SDS011;6054;50.966;7.094;2024-03-07T07:04:18;24.23;;;14.75;;
11988;SDS011;6054;50.966;7.094;2024-03-07T07:07:00;22.20;;;14.82;;
11988;SDS011;6054;50.966;7.094;2024-03-07T07:12:29;25.40;;;14.23;;
11988;SDS011;6054;50.966;7.094;2024-03-07T07:15:07;22.70;;;15.23;;
11988;SDS011;6054;50.966;7.094;2024-03-07T07:17:43;35.15;;;16.52;;
11988;SDS011;6054;50.966;7.094;2024-03-07T07:20:23;28.17;;;15.77;;
11988;SDS011;6054;50.966;7.094;2024-03-07T07:23:13;26.02;;;15.93;;
11988;SDS011;6054;50.966;7.094;2024-03-07T07:25:58;20.95;;;14.00;;
11988;SDS011;6054;50.966;7.094;2024-03-07T07:28:44;22.95;;;14.65;;
11988;SDS011;6054;50.966;7.094;2024-03-07T07:31:25;24.55;;;15.43;;
11988;SDS011;6054;50.966;7.094;2024-03-07T07:34:23;20.23;;;14.45;;
11988;SDS011;6054;50.966;7.094;2024-03-07T07:37:00;23.67;;;15.40;;
11988;SDS011;6054;50.966;7.094;2024-03-07T07:39:51;19.65;;;13.25;;
11988;SDS011;6054;50.966;7.094;2024-03-07T07:42:21;21.60;;;13.80;;
11988;SDS011;6054;50.966;7.094;2024-03-07T07:45:21;21.55;;;14.02;;
11988;SDS011;6054;50.966;7.094;2024-03-07T07:47:50;20.80;;;13.35;;
11988;SDS011;6054;50.966;7.094;2024-03-07T07:50:24;22.38;;;13.88;;
11988;SDS011;6054;50.966;7.094;2024-03-07T07:52:51;19.42;;;13.93;;
11988;SDS011;6054;50.966;7.094;2024-03-07T07:55:25;18.30;;;11.80;;
11988;SDS011;6054;50.966;7.094;2024-03-07T07:58:08;17.55;;;13.43;;
11988;SDS011;6054;50.966;7.094;2024-03-07T08:01:00;21.30;;;13.45;;
11988;SDS011;6054;50.966;7.094;2024-03-07T08:03:33;18.40;;;13.77;;
11988;SDS011;6054;50.966;7.094;2024-03-07T08:06:19;18.65;;;13.77;;
11988;SDS011;6054;50.966;7.094;2024-03-07T08:08:46;20.40;;;13.13;;
11988;SDS011;6054;50.966;7.094;2024-03-07T08:11:19;19.83;;;12.70;;
11988;SDS011;6054;50.966;7.094;2024-03-07T08:14:01;19.27;;;13.85;;
11988;SDS011;6054;50.966;7.094;2024-03-07T08:16:29;19.00;;;12.20;;
11988;SDS011;6054;50.966;7.094;2024-03-07T08:19:00;19.83;;;13.23;;
11988;SDS011;6054;50.966;7.094;2024-03-07T08:21:51;17.88;;;12.65;;
11988;SDS011;6054;50.966;7.094;2024-03-07T08:24:20;18.25;;;12.27;;
11988;SDS011;6054;50.966;7.094;2024-03-07T08:26:49;17.65;;;12.68;;
11988;SDS011;6054;50.966;7.094;2024-03-07T08:29:23;18.48;;;12.57;;
11988;SDS011;6054;50.966;7.094;2024-03-07T08:31:50;18.75;;;12.48;;
11988;SDS011;6054;50.966;7.094;2024-03-07T08:36:47;19.13;;;12.35;;
11988;SDS011;6054;50.966;7.094;2024-03-07T08:40:17;21.60;;;12.88;;
11988;SDS011;6054;50.966;7.094;2024-03-07T08:45:46;19.67;;;12.20;;
11988;SDS011;6054;50.966;7.094;2024-03-07T08:48:16;16.80;;;12.13;;
11988;SDS011;6054;50.966;7.094;2024-03-07T08:50:44;16.33;;;11.45;;
11988;SDS011;6054;50.966;7.094;2024-03-07T08:53:22;17.35;;;12.35;;
11988;SDS011;6054;50.966;7.094;2024-03-07T08:56:24;20.25;;;12.13;;
11988;SDS011;6054;50.966;7.094;2024-03-07T08:58:54;17.48;;;12.57;;
11988;SDS011;6054;50.966;7.094;2024-03-07T09:04:18;18.83;;;12.20;;
11988;SDS011;6054;50.966;7.094;2024-03-07T09:06:48;17.40;;;11.73;;
11988;SDS011;6054;50.966;7.094;2024-03-07T09:09:31;17.60;;;11.60;;
11988;SDS011;6054;50.966;7.094;2024-03-07T09:12:00;16.35;;;11.77;;
11988;SDS011;6054;50.966;7.094;2024-03-07T09:14:33;17.02;;;11.88;;
11988;SDS011;6054;50.966;7.094;2024-03-07T09:17:08;13.77;;;10.13;;
11988;SDS011;6054;50.966;7.094;2024-03-07T09:19:35;17.20;;;12.38;;
11988;SDS011;6054;50.966;7.094;2024-03-07T09:22:13;16.10;;;12.13;;
11988;SDS011;6054;50.966;7.094;2024-03-07T09:24:49;15.77;;;11.35;;
11988;SDS011;6054;50.966;7.094;2024-03-07T09:27:27;14.98;;;10.63;;
11988;SDS011;6054;50.966;7.094;2024-03-07T09:29:55;16.40;;;11.63;;
11988;SDS011;6054;50.966;7.094;2024-03-07T09:32:40;16.95;;;11.77;;
11988;SDS011;6054;50.966;7.094;2024-03-07T09:40:16;19.83;;;10.93;;
11988;SDS011;6054;50.966;7.094;2024-03-07T09:43:00;15.75;;;9.57;;
11988;SDS011;6054;50.966;7.094;2024-03-07T09:45:36;17.27;;;12.13;;
11988;SDS011;6054;50.966;7.094;2024-03-07T09:51:05;17.08;;;11.95;;
11988;SDS011;6054;50.966;7.094;2024-03-07T09:53:45;20.60;;;11.63;;
11988;SDS011;6054;50.966;7.094;2024-03-07T09:56:36;17.20;;;12.38;;
11988;SDS011;6054;50.966;7.094;2024-03-07T09:59:20;20.77;;;12.82;;
11988;SDS011;6054;50.966;7.094;2024-03-07T10:01:51;19.08;;;13.73;;
11988;SDS011;6054;50.966;7.094;2024-03-07T10:10:46;18.70;;;12.77;;
11988;SDS011;6054;50.966;7.094;2024-03-07T10:13:14;17.45;;;12.13;;
11988;SDS011;6054;50.966;7.094;2024-03-07T10:15:56;17.13;;;11.57;;
11988;SDS011;6054;50.966;7.094;2024-03-07T10:18:40;17.20;;;12.07;;
11988;SDS011;6054;50.966;7.094;2024-03-07T10:21:12;18.13;;;11.73;;
11988;SDS011;6054;50.966;7.094;2024-03-07T10:26:38;19.05;;;12.52;;
11988;SDS011;6054;50.966;7.094;2024-03-07T10:29:13;16.40;;;11.15;;
11988;SDS011;6054;50.966;7.094;2024-03-07T10:31:42;19.13;;;13.02;;
11988;SDS011;6054;50.966;7.094;2024-03-07T10:34:13;20.20;;;12.23;;
11988;SDS011;6054;50.966;7.094;2024-03-07T10:39:22;20.63;;;11.98;;
11988;SDS011;6054;50.966;7.094;2024-03-07T10:41:50;16.05;;;11.30;;
11988;SDS011;6054;50.966;7.094;2024-03-07T10:44:27;15.18;;;10.18;;
11988;SDS011;6054;50.966;7.094;2024-03-07T10:47:07;14.90;;;11.68;;
11988;SDS011;6054;50.966;7.094;2024-03-07T10:49:41;16.45;;;11.38;;
11988;SDS011;6054;50.966;7.094;2024-03-07T10:52:23;14.73;;;10.20;;
11988;SDS011;6054;50.966;7.094;2024-03-07T10:55:04;17.58;;;10.35;;
11988;SDS011;6054;50.966;7.094;2024-03-07T10:57:49;15.35;;;11.18;;
11988;SDS011;6054;50.966;7.094;2024-03-07T11:00:40;15.82;;;10.23;;
11988;SDS011;6054;50.966;7.094;2024-03-07T11:03:12;13.90;;;10.90;;
11988;SDS011;6054;50.966;7.094;2024-03-07T11:05:41;14.45;;;10.50;;
11988;SDS011;6054;50.966;7.094;2024-03-07T11:08:15;14.38;;;10.15;;
11988;SDS011;6054;50.966;7.094;2024-03-07T11:11:03;14.55;;;10.93;;
11988;SDS011;6054;50.966;7.094;2024-03-07T11:13:37;19.65;;;13.18;;
11988;SDS011;6054;50.966;7.094;2024-03-07T11:16:42;18.63;;;11.77;;
11988;SDS011;6054;50.966;7.094;2024-03-07T11:19:19;17.23;;;10.98;;
11988;SDS011;6054;50.966;7.094;2024-03-07T11:22:07;15.63;;;11.65;;
11988;SDS011;6054;50.966;7.094;2024-03-07T11:24:48;18.42;;;12.07;;
11988;SDS011;6054;50.966;7.094;2024-03-07T11:27:34;16.42;;;11.13;;
11988;SDS011;6054;50.966;7.094;2024-03-07T11:30:05;16.25;;;11.32;;
11988;SDS011;6054;50.966;7.094;2024-03-07T11:32:38;15.27;;;10.13;;
11988;SDS011;6054;50.966;7.094;2024-03-07T11:35:11;15.25;;;10.90;;
11988;SDS011;6054;50.966;7.094;2024-03-07T11:37:40;13.70;;;9.48;;
11988;SDS011;6054;50.966;7.094;2024-03-07T11:40:11;13.80;;;9.90;;
11988;SDS011;6054;50.966;7.094;2024-03-07T11:42:50;15.35;;;10.40;;
11988;SDS011;6054;50.966;7.094;2024-03-07T11:45:18;12.20;;;8.90;;
11988;SDS011;6054;50.966;7.094;2024-03-07T11:48:06;12.82;;;9.30;;
11988;SDS011;6054;50.966;7.094;2024-03-07T11:50:45;15.48;;;9.32;;
11988;SDS011;6054;50.966;7.094;2024-03-07T11:53:44;11.70;;;7.93;;
11988;SDS011;6054;50.966;7.094;2024-03-07T11:56:28;12.25;;;8.98;;
11988;SDS011;6054;50.966;7.094;2024-03-07T12:02:24;12.75;;;8.43;;
11988;SDS011;6054;50.966;7.094;2024-03-07T12:05:14;10.77;;;8.10;;
11988;SDS011;6054;50.966;7.094;2024-03-07T12:07:56;11.55;;;8.27;;
11988;SDS011;6054;50.966;7.094;2024-03-07T12:10:26;10.25;;;7.47;;
11988;SDS011;6054;50.966;7.094;2024-03-07T12:13:13;8.57;;;6.53;;
11988;SDS011;6054;50.966;7.094;2024-03-07T12:15:46;11.25;;;7.57;;
11988;SDS011;6054;50.966;7.094;2024-03-07T12:18:22;11.00;;;7.50;;
11988;SDS011;6054;50.966;7.094;2024-03-07T12:20:52;10.18;;;6.57;;
11988;SDS011;6054;50.966;7.094;2024-03-07T12:23:23;8.50;;;6.57;;
11988;SDS011;6054;50.966;7.094;2024-03-07T12:28:47;9.88;;;6.40;;
11988;SDS011;6054;50.966;7.094;2024-03-07T12:31:30;8.43;;;5.97;;
11988;SDS011;6054;50.966;7.094;2024-03-07T12:46:17;9.60;;;7.53;;
11988;SDS011;6054;50.966;7.094;2024-03-07T12:48:53;9.15;;;7.05;;
11988;SDS011;6054;50.966;7.094;2024-03-07T12:51:41;12.15;;;8.07;;
11988;SDS011;6054;50.966;7.094;2024-03-07T12:58:11;10.75;;;7.47;;
11988;SDS011;6054;50.966;7.094;2024-03-07T13:00:39;9.85;;;7.75;;
11988;SDS011;6054;50.966;7.094;2024-03-07T13:03:06;9.95;;;7.60;;
11988;SDS011;6054;50.966;7.094;2024-03-07T13:05:38;13.10;;;8.07;;
11988;SDS011;6054;50.966;7.094;2024-03-07T13:08:19;9.48;;;6.78;;
11988;SDS011;6054;50.966;7.094;2024-03-07T13:10:51;10.02;;;6.57;;
11988;SDS011;6054;50.966;7.094;2024-03-07T13:13:31;7.70;;;6.47;;
11988;SDS011;6054;50.966;7.094;2024-03-07T13:16:00;7.05;;;5.30;;
11988;SDS011;6054;50.966;7.094;2024-03-07T13:18:32;10.13;;;6.63;;
11988;SDS011;6054;50.966;7.094;2024-03-07T13:21:03;10.77;;;7.05;;
11988;SDS011;6054;50.966;7.094;2024-03-07T13:23:48;10.52;;;7.65;;
11988;SDS011;6054;50.966;7.094;2024-03-07T13:26:32;9.25;;;5.93;;
11988;SDS011;6054;50.966;7.094;2024-03-07T13:29:26;10.40;;;7.00;;
11988;SDS011;6054;50.966;7.094;2024-03-07T13:31:57;8.60;;;6.88;;
11988;SDS011;6054;50.966;7.094;2024-03-07T13:42:25;8.57;;;6.57;;
11988;SDS011;6054;50.966;7.094;2024-03-07T13:50:45;8.40;;;6.25;;
11988;SDS011;6054;50.966;7.094;2024-03-07T13:53:48;9.43;;;7.30;;
11988;SDS011;6054;50.966;7.094;2024-03-07T13:56:39;8.13;;;6.35;;
11988;SDS011;6054;50.966;7.094;2024-03-07T13:59:47;9.07;;;6.65;;
11988;SDS011;6054;50.966;7.094;2024-03-07T14:06:11;6.55;;;5.82;;
11988;SDS011;6054;50.966;7.094;2024-03-07T14:22:07;7.43;;;5.70;;
11988;SDS011;6054;50.966;7.094;2024-03-07T14:25:24;8.10;;;6.10;;
11988;SDS011;6054;50.966;7.094;2024-03-07T14:28:13;8.18;;;6.18;;
11988;SDS011;6054;50.966;7.094;2024-03-07T14:31:18;7.22;;;5.78;;
11988;SDS011;6054;50.966;7.094;2024-03-07T14:46:32;9.90;;;5.90;;
11988;SDS011;6054;50.966;7.094;2024-03-07T14:49:29;7.03;;;5.72;;
11988;SDS011;6054;50.966;7.094;2024-03-07T14:52:10;7.45;;;5.72;;
11988;SDS011;6054;50.966;7.094;2024-03-07T14:54:43;8.30;;;5.45;;
11988;SDS011;6054;50.966;7.094;2024-03-07T14:57:13;7.38;;;5.78;;
11988;SDS011;6054;50.966;7.094;2024-03-07T14:59:50;7.70;;;6.53;;
11988;SDS011;6054;50.966;7.094;2024-03-07T15:06:41;7.85;;;6.22;;
11988;SDS011;6054;50.966;7.094;2024-03-07T15:17:57;8.60;;;6.22;;
11988;SDS011;6054;50.966;7.094;2024-03-07T15:20:45;7.18;;;5.40;;
11988;SDS011;6054;50.966;7.094;2024-03-07T15:23:28;10.55;;;6.30;;
11988;SDS011;6054;50.966;7.094;2024-03-07T15:25:56;11.70;;;6.75;;
11988;SDS011;6054;50.966;7.094;2024-03-07T15:28:25;10.20;;;6.75;;
11988;SDS011;6054;50.966;7.094;2024-03-07T15:30:56;7.72;;;5.53;;
11988;SDS011;6054;50.966;7.094;2024-03-07T15:33:40;10.07;;;6.75;;
11988;SDS011;6054;50.966;7.094;2024-03-07T15:36:18;11.05;;;6.75;;
11988;SDS011;6054;50.966;7.094;2024-03-07T15:39:01;10.77;;;6.20;;
11988;SDS011;6054;50.966;7.094;2024-03-07T15:41:44;9.00;;;6.40;;
11988;SDS011;6054;50.966;7.094;2024-03-07T15:44:17;10.57;;;6.82;;
11988;SDS011;6054;50.966;7.094;2024-03-07T15:46:55;9.07;;;6.75;;
11988;SDS011;6054;50.966;7.094;2024-03-07T15:49:29;9.52;;;7.30;;
11988;SDS011;6054;50.966;7.094;2024-03-07T15:52:03;9.82;;;6.38;;
11988;SDS011;6054;50.966;7.094;2024-03-07T15:55:23;12.25;;;7.93;;
11988;SDS011;6054;50.966;7.094;2024-03-07T15:58:06;12.13;;;7.70;;
11988;SDS011;6054;50.966;7.094;2024-03-07T16:00:35;8.85;;;6.25;;
11988;SDS011;6054;50.966;7.094;2024-03-07T16:03:37;10.13;;;7.47;;
11988;SDS011;6054;50.966;7.094;2024-03-07T16:06:16;10.68;;;7.45;;
11988;SDS011;6054;50.966;7.094;2024-03-07T16:08:56;11.20;;;7.32;;
11988;SDS011;6054;50.966;7.094;2024-03-07T16:11:50;10.00;;;7.20;;
11988;SDS011;6054;50.966;7.094;2024-03-07T16:14:48;9.30;;;6.95;;
11988;SDS011;6054;50.966;7.094;2024-03-07T16:31:05;10.05;;;6.85;;
11988;SDS011;6054;50.966;7.094;2024-03-07T16:33:42;9.05;;;6.32;;
11988;SDS011;6054;50.966;7.094;2024-03-07T16:36:10;9.40;;;7.13;;
11988;SDS011;6054;50.966;7.094;2024-03-07T16:38:53;13.90;;;6.97;;
11988;SDS011;6054;50.966;7.094;2024-03-07T16:41:23;8.57;;;6.22;;
11988;SDS011;6054;50.966;7.094;2024-03-07T16:44:09;11.00;;;6.07;;
11988;SDS011;6054;50.966;7.094;2024-03-07T16:53:05;10.57;;;6.93;;
11988;SDS011;6054;50.966;7.094;2024-03-07T16:55:58;8.95;;;6.28;;
11988;SDS011;6054;50.966;7.094;2024-03-07T16:58:33;9.23;;;6.00;;
11988;SDS011;6054;50.966;7.094;2024-03-07T17:01:20;11.07;;;6.78;;
11988;SDS011;6054;50.966;7.094;2024-03-07T17:03:56;11.73;;;6.97;;
11988;SDS011;6054;50.966;7.094;2024-03-07T17:12:38;9.13;;;6.28;;
11988;SDS011;6054;50.966;7.094;2024-03-07T17:15:22;11.27;;;6.97;;
11988;SDS011;6054;50.966;7.094;2024-03-07T17:17:55;12.43;;;7.45;;
11988;SDS011;6054;50.966;7.094;2024-03-07T17:20:25;10.77;;;7.00;;
11988;SDS011;6054;50.966;7.094;2024-03-07T17:22:57;12.38;;;6.80;;
11988;SDS011;6054;50.966;7.094;2024-03-07T17:25:43;10.88;;;7.10;;
11988;SDS011;6054;50.966;7.094;2024-03-07T17:28:11;13.75;;;7.85;;
11988;SDS011;6054;50.966;7.094;2024-03-07T17:30:42;10.95;;;7.10;;
11988;SDS011;6054;50.966;7.094;2024-03-07T17:33:12;10.88;;;7.22;;
11988;SDS011;6054;50.966;7.094;2024-03-07T17:35:50;12.82;;;8.43;;
11988;SDS011;6054;50.966;7.094;2024-03-07T17:38:19;15.55;;;9.35;;
11988;SDS011;6054;50.966;7.094;2024-03-07T17:46:42;23.48;;;14.68;;
11988;SDS011;6054;50.966;7.094;2024-03-07T17:49:23;10.38;;;8.40;;
11988;SDS011;6054;50.966;7.094;2024-03-07T17:51:54;13.30;;;8.82;;
11988;SDS011;6054;50.966;7.094;2024-03-07T17:54:27;12.63;;;7.75;;
11988;SDS011;6054;50.966;7.094;2024-03-07T17:59:59;12.98;;;7.97;;
11988;SDS011;6054;50.966;7.094;2024-03-07T18:02:45;13.00;;;7.75;;
11988;SDS011;6054;50.966;7.094;2024-03-07T18:05:34;12.18;;;7.60;;
11988;SDS011;6054;50.966;7.094;2024-03-07T18:08:06;11.60;;;7.57;;
11988;SDS011;6054;50.966;7.094;2024-03-07T18:10:34;13.15;;;8.10;;
11988;SDS011;6054;50.966;7.094;2024-03-07T18:13:18;12.27;;;7.32;;
11988;SDS011;6054;50.966;7.094;2024-03-07T18:16:05;12.07;;;6.55;;
11988;SDS011;6054;50.966;7.094;2024-03-07T18:18:51;14.98;;;7.00;;
11988;SDS011;6054;50.966;7.094;2024-03-07T18:21:21;11.18;;;7.00;;
11988;SDS011;6054;50.966;7.094;2024-03-07T18:23:55;13.35;;;7.32;;
11988;SDS011;6054;50.966;7.094;2024-03-07T18:26:26;12.48;;;7.55;;
11988;SDS011;6054;50.966;7.094;2024-03-07T18:31:45;9.68;;;6.40;;
11988;SDS011;6054;50.966;7.094;2024-03-07T18:34:15;8.68;;;6.55;;
11988;SDS011;6054;50.966;7.094;2024-03-07T18:36:49;11.30;;;7.45;;
11988;SDS011;6054;50.966;7.094;2024-03-07T18:39:35;13.25;;;7.90;;
11988;SDS011;6054;50.966;7.094;2024-03-07T18:42:04;13.85;;;8.18;;
11988;SDS011;6054;50.966;7.094;2024-03-07T18:47:54;18.67;;;10.38;;
11988;SDS011;6054;50.966;7.094;2024-03-07T18:50:44;28.42;;;16.75;;